sensor_id;sensor_type;location;lat;lon;timestamp;P1;durP1;ratioP1;P2;durP2;ratioP2
20908;SDS011;10614;53.198;6.570;2023-07-13T00:01:56;11.80;;;2.75;;
20908;SDS011;10614;53.198;6.570;2023-07-13T00:03:58;10.05;;;2.65;;
20908;SDS011;10614;53.198;6.570;2023-07-13T00:06:00;6.80;;;2.38;;
20908;SDS011;10614;53.198;6.570;2023-07-13T00:08:04;9.35;;;3.10;;
20908;SDS011;10614;53.198;6.570;2023-07-13T00:10:06;11.00;;;2.67;;
20908;SDS011;10614;53.198;6.570;2023-07-13T00:12:21;6.95;;;2.50;;
20908;SDS011;10614;53.198;6.570;2023-07-13T00:14:27;10.77;;;2.63;;
20908;SDS011;10614;53.198;6.570;2023-07-13T00:16:30;9.25;;;2.63;;
20908;SDS011;10614;53.198;6.570;2023-07-13T00:18:32;8.25;;;2.63;;
20908;SDS011;10614;53.198;6.570;2023-07-13T00:20:34;6.78;;;2.25;;
20908;SDS011;10614;53.198;6.570;2023-07-13T00:22:36;6.65;;;2.33;;
20908;SDS011;10614;53.198;6.570;2023-07-13T00:24:38;8.90;;;2.38;;
20908;SDS011;10614;53.198;6.570;2023-07-13T00:26:42;10.15;;;2.70;;
20908;SDS011;10614;53.198;6.570;2023-07-13T00:28:45;8.65;;;2.47;;
20908;SDS011;10614;53.198;6.570;2023-07-13T00:30:49;12.05;;;2.65;;
20908;SDS011;10614;53.198;6.570;2023-07-13T00:32:51;9.52;;;2.80;;
20908;SDS011;10614;53.198;6.570;2023-07-13T00:34:52;15.20;;;3.35;;
20908;SDS011;10614;53.198;6.570;2023-07-13T00:36:54;13.50;;;3.08;;
20908;SDS011;10614;53.198;6.570;2023-07-13T00:38:56;7.07;;;2.50;;
20908;SDS011;10614;53.198;6.570;2023-07-13T00:41:02;8.90;;;2.55;;
20908;SDS011;10614;53.198;6.570;2023-07-13T00:43:09;11.85;;;2.80;;
20908;SDS011;10614;53.198;6.570;2023-07-13T00:47:52;10.43;;;3.10;;
20908;SDS011;10614;53.198;6.570;2023-07-13T00:49:54;10.57;;;2.83;;
20908;SDS011;10614;53.198;6.570;2023-07-13T00:51:58;12.95;;;3.20;;
20908;SDS011;10614;53.198;6.570;2023-07-13T00:54:04;13.68;;;2.97;;
20908;SDS011;10614;53.198;6.570;2023-07-13T00:56:08;10.68;;;3.28;;
20908;SDS011;10614;53.198;6.570;2023-07-13T00:58:11;11.60;;;3.17;;
20908;SDS011;10614;53.198;6.570;2023-07-13T01:00:13;11.20;;;2.85;;
20908;SDS011;10614;53.198;6.570;2023-07-13T01:02:16;9.38;;;2.92;;
20908;SDS011;10614;53.198;6.570;2023-07-13T01:04:22;7.63;;;2.33;;
20908;SDS011;10614;53.198;6.570;2023-07-13T01:06:25;11.50;;;3.00;;
20908;SDS011;10614;53.198;6.570;2023-07-13T01:08:26;11.82;;;2.80;;
20908;SDS011;10614;53.198;6.570;2023-07-13T01:10:29;9.45;;;2.90;;
20908;SDS011;10614;53.198;6.570;2023-07-13T01:12:38;8.63;;;2.85;;
20908;SDS011;10614;53.198;6.570;2023-07-13T01:14:40;9.10;;;2.92;;
20908;SDS011;10614;53.198;6.570;2023-07-13T01:16:45;6.05;;;2.78;;
20908;SDS011;10614;53.198;6.570;2023-07-13T01:18:48;6.22;;;2.22;;
20908;SDS011;10614;53.198;6.570;2023-07-13T01:20:52;9.10;;;2.80;;
20908;SDS011;10614;53.198;6.570;2023-07-13T01:22:55;10.48;;;2.75;;
20908;SDS011;10614;53.198;6.570;2023-07-13T01:24:57;9.20;;;2.63;;
20908;SDS011;10614;53.198;6.570;2023-07-13T01:26:59;9.80;;;2.97;;
20908;SDS011;10614;53.198;6.570;2023-07-13T01:29:01;12.15;;;3.10;;
20908;SDS011;10614;53.198;6.570;2023-07-13T01:31:03;9.27;;;3.00;;
20908;SDS011;10614;53.198;6.570;2023-07-13T01:33:05;7.90;;;3.13;;
20908;SDS011;10614;53.198;6.570;2023-07-13T01:35:07;10.70;;;2.72;;
20908;SDS011;10614;53.198;6.570;2023-07-13T01:37:14;10.23;;;3.47;;
20908;SDS011;10614;53.198;6.570;2023-07-13T01:39:16;9.65;;;2.90;;
20908;SDS011;10614;53.198;6.570;2023-07-13T01:41:17;10.57;;;3.15;;
20908;SDS011;10614;53.198;6.570;2023-07-13T01:43:20;10.02;;;3.50;;
20908;SDS011;10614;53.198;6.570;2023-07-13T01:45:22;7.32;;;3.50;;
20908;SDS011;10614;53.198;6.570;2023-07-13T01:47:24;8.48;;;2.88;;
20908;SDS011;10614;53.198;6.570;2023-07-13T01:49:28;8.88;;;2.45;;
20908;SDS011;10614;53.198;6.570;2023-07-13T01:51:29;10.27;;;3.58;;
20908;SDS011;10614;53.198;6.570;2023-07-13T01:53:33;9.70;;;3.33;;
20908;SDS011;10614;53.198;6.570;2023-07-13T01:55:35;11.32;;;3.15;;
20908;SDS011;10614;53.198;6.570;2023-07-13T01:57:37;8.70;;;3.15;;
20908;SDS011;10614;53.198;6.570;2023-07-13T01:59:40;8.38;;;3.10;;
20908;SDS011;10614;53.198;6.570;2023-07-13T02:01:41;12.60;;;4.05;;
20908;SDS011;10614;53.198;6.570;2023-07-13T02:03:43;13.88;;;3.60;;
20908;SDS011;10614;53.198;6.570;2023-07-13T02:05:46;12.70;;;3.47;;
20908;SDS011;10614;53.198;6.570;2023-07-13T02:07:48;11.10;;;3.55;;
20908;SDS011;10614;53.198;6.570;2023-07-13T02:09:56;9.80;;;3.28;;
20908;SDS011;10614;53.198;6.570;2023-07-13T02:11:58;11.15;;;3.53;;
20908;SDS011;10614;53.198;6.570;2023-07-13T02:14:00;12.32;;;3.45;;
20908;SDS011;10614;53.198;6.570;2023-07-13T02:16:03;7.15;;;2.80;;
20908;SDS011;10614;53.198;6.570;2023-07-13T02:18:06;8.23;;;2.70;;
20908;SDS011;10614;53.198;6.570;2023-07-13T02:20:08;12.68;;;3.35;;
20908;SDS011;10614;53.198;6.570;2023-07-13T02:22:09;15.43;;;3.92;;
20908;SDS011;10614;53.198;6.570;2023-07-13T02:24:11;8.00;;;3.03;;
20908;SDS011;10614;53.198;6.570;2023-07-13T02:26:19;9.23;;;3.50;;
20908;SDS011;10614;53.198;6.570;2023-07-13T02:28:21;6.18;;;2.88;;
20908;SDS011;10614;53.198;6.570;2023-07-13T02:30:22;11.40;;;3.03;;
20908;SDS011;10614;53.198;6.570;2023-07-13T02:32:25;10.98;;;3.20;;
20908;SDS011;10614;53.198;6.570;2023-07-13T02:34:26;8.95;;;3.10;;
20908;SDS011;10614;53.198;6.570;2023-07-13T02:36:29;12.57;;;3.47;;
20908;SDS011;10614;53.198;6.570;2023-07-13T02:38:31;9.95;;;3.10;;
20908;SDS011;10614;53.198;6.570;2023-07-13T02:40:33;11.82;;;3.45;;
20908;SDS011;10614;53.198;6.570;2023-07-13T02:42:37;9.52;;;3.28;;
20908;SDS011;10614;53.198;6.570;2023-07-13T02:44:39;10.15;;;3.28;;
20908;SDS011;10614;53.198;6.570;2023-07-13T02:46:40;11.85;;;3.60;;
20908;SDS011;10614;53.198;6.570;2023-07-13T02:48:42;8.98;;;3.53;;
20908;SDS011;10614;53.198;6.570;2023-07-13T02:50:44;12.52;;;3.75;;
20908;SDS011;10614;53.198;6.570;2023-07-13T02:52:47;12.95;;;4.00;;
20908;SDS011;10614;53.198;6.570;2023-07-13T02:54:49;11.30;;;4.03;;
20908;SDS011;10614;53.198;6.570;2023-07-13T02:56:49;9.75;;;3.67;;
20908;SDS011;10614;53.198;6.570;2023-07-13T02:58:53;8.10;;;3.33;;
20908;SDS011;10614;53.198;6.570;2023-07-13T03:00:55;14.80;;;4.20;;
20908;SDS011;10614;53.198;6.570;2023-07-13T03:02:58;15.50;;;4.32;;
20908;SDS011;10614;53.198;6.570;2023-07-13T03:05:02;18.25;;;3.92;;
20908;SDS011;10614;53.198;6.570;2023-07-13T03:07:05;12.15;;;4.20;;
20908;SDS011;10614;53.198;6.570;2023-07-13T03:09:06;10.85;;;3.90;;
20908;SDS011;10614;53.198;6.570;2023-07-13T03:11:09;12.40;;;4.32;;
20908;SDS011;10614;53.198;6.570;2023-07-13T03:13:13;11.32;;;4.15;;
20908;SDS011;10614;53.198;6.570;2023-07-13T03:15:16;13.15;;;4.07;;
20908;SDS011;10614;53.198;6.570;2023-07-13T03:17:18;11.93;;;4.20;;
20908;SDS011;10614;53.198;6.570;2023-07-13T03:19:19;14.52;;;4.35;;
20908;SDS011;10614;53.198;6.570;2023-07-13T03:21:22;14.73;;;4.28;;
20908;SDS011;10614;53.198;6.570;2023-07-13T03:23:24;11.93;;;4.32;;
20908;SDS011;10614;53.198;6.570;2023-07-13T03:25:26;9.60;;;3.53;;
20908;SDS011;10614;53.198;6.570;2023-07-13T03:27:31;14.57;;;4.30;;
20908;SDS011;10614;53.198;6.570;2023-07-13T03:29:32;10.80;;;4.32;;
20908;SDS011;10614;53.198;6.570;2023-07-13T03:31:36;11.40;;;4.20;;
20908;SDS011;10614;53.198;6.570;2023-07-13T03:33:39;11.70;;;4.30;;
20908;SDS011;10614;53.198;6.570;2023-07-13T03:35:41;13.65;;;4.10;;
20908;SDS011;10614;53.198;6.570;2023-07-13T03:37:43;9.32;;;3.85;;
20908;SDS011;10614;53.198;6.570;2023-07-13T03:39:45;13.05;;;3.83;;
20908;SDS011;10614;53.198;6.570;2023-07-13T03:41:47;14.45;;;4.10;;
20908;SDS011;10614;53.198;6.570;2023-07-13T03:43:49;13.23;;;4.07;;
20908;SDS011;10614;53.198;6.570;2023-07-13T03:45:51;10.10;;;3.85;;
20908;SDS011;10614;53.198;6.570;2023-07-13T03:47:55;14.57;;;4.03;;
20908;SDS011;10614;53.198;6.570;2023-07-13T03:49:57;14.20;;;4.22;;
20908;SDS011;10614;53.198;6.570;2023-07-13T03:51:58;11.20;;;3.60;;
20908;SDS011;10614;53.198;6.570;2023-07-13T03:54:00;12.63;;;3.65;;
20908;SDS011;10614;53.198;6.570;2023-07-13T03:56:02;9.85;;;3.83;;
20908;SDS011;10614;53.198;6.570;2023-07-13T03:58:24;10.77;;;3.97;;
20908;SDS011;10614;53.198;6.570;2023-07-13T04:00:28;11.02;;;3.60;;
20908;SDS011;10614;53.198;6.570;2023-07-13T04:02:30;13.77;;;3.90;;
20908;SDS011;10614;53.198;6.570;2023-07-13T04:04:33;15.27;;;3.53;;
20908;SDS011;10614;53.198;6.570;2023-07-13T04:06:35;12.43;;;4.15;;
20908;SDS011;10614;53.198;6.570;2023-07-13T04:08:36;11.38;;;3.55;;
20908;SDS011;10614;53.198;6.570;2023-07-13T04:10:38;10.88;;;3.90;;
20908;SDS011;10614;53.198;6.570;2023-07-13T04:12:40;10.18;;;3.30;;
20908;SDS011;10614;53.198;6.570;2023-07-13T04:14:42;13.40;;;4.30;;
20908;SDS011;10614;53.198;6.570;2023-07-13T04:16:44;14.02;;;4.65;;
20908;SDS011;10614;53.198;6.570;2023-07-13T04:18:46;11.57;;;4.20;;
20908;SDS011;10614;53.198;6.570;2023-07-13T04:20:51;12.30;;;4.32;;
20908;SDS011;10614;53.198;6.570;2023-07-13T04:22:52;12.18;;;4.03;;
20908;SDS011;10614;53.198;6.570;2023-07-13T04:24:54;12.88;;;4.10;;
20908;SDS011;10614;53.198;6.570;2023-07-13T04:26:56;12.50;;;4.30;;
20908;SDS011;10614;53.198;6.570;2023-07-13T04:28:59;13.45;;;4.47;;
20908;SDS011;10614;53.198;6.570;2023-07-13T04:31:03;14.85;;;4.07;;
20908;SDS011;10614;53.198;6.570;2023-07-13T04:33:05;11.93;;;4.22;;
20908;SDS011;10614;53.198;6.570;2023-07-13T04:35:07;16.60;;;4.78;;
20908;SDS011;10614;53.198;6.570;2023-07-13T04:37:10;16.40;;;4.93;;
20908;SDS011;10614;53.198;6.570;2023-07-13T04:39:12;14.65;;;4.07;;
20908;SDS011;10614;53.198;6.570;2023-07-13T04:41:14;13.50;;;3.92;;
20908;SDS011;10614;53.198;6.570;2023-07-13T04:43:16;12.77;;;4.70;;
20908;SDS011;10614;53.198;6.570;2023-07-13T04:45:18;10.90;;;4.28;;
20908;SDS011;10614;53.198;6.570;2023-07-13T04:47:21;13.70;;;4.80;;
20908;SDS011;10614;53.198;6.570;2023-07-13T04:49:22;12.65;;;4.68;;
20908;SDS011;10614;53.198;6.570;2023-07-13T04:51:25;15.45;;;5.07;;
20908;SDS011;10614;53.198;6.570;2023-07-13T04:53:29;21.17;;;7.32;;
20908;SDS011;10614;53.198;6.570;2023-07-13T04:55:32;14.50;;;5.25;;
20908;SDS011;10614;53.198;6.570;2023-07-13T04:57:34;16.73;;;5.32;;
20908;SDS011;10614;53.198;6.570;2023-07-13T04:59:35;13.73;;;4.70;;
20908;SDS011;10614;53.198;6.570;2023-07-13T05:01:37;18.42;;;5.20;;
20908;SDS011;10614;53.198;6.570;2023-07-13T05:03:42;13.45;;;4.60;;
20908;SDS011;10614;53.198;6.570;2023-07-13T05:05:53;15.32;;;4.32;;
20908;SDS011;10614;53.198;6.570;2023-07-13T05:07:56;15.98;;;4.65;;
20908;SDS011;10614;53.198;6.570;2023-07-13T05:10:05;15.55;;;4.68;;
20908;SDS011;10614;53.198;6.570;2023-07-13T05:12:08;17.80;;;4.80;;
20908;SDS011;10614;53.198;6.570;2023-07-13T05:14:11;15.98;;;5.30;;
20908;SDS011;10614;53.198;6.570;2023-07-13T05:16:14;13.73;;;4.57;;
20908;SDS011;10614;53.198;6.570;2023-07-13T05:18:15;13.55;;;4.70;;
20908;SDS011;10614;53.198;6.570;2023-07-13T05:20:18;12.50;;;4.88;;
20908;SDS011;10614;53.198;6.570;2023-07-13T05:22:19;13.70;;;4.40;;
20908;SDS011;10614;53.198;6.570;2023-07-13T05:24:21;18.90;;;5.10;;
20908;SDS011;10614;53.198;6.570;2023-07-13T05:26:24;11.77;;;4.63;;
20908;SDS011;10614;53.198;6.570;2023-07-13T05:28:30;11.25;;;4.32;;
20908;SDS011;10614;53.198;6.570;2023-07-13T05:30:32;16.65;;;4.93;;
20908;SDS011;10614;53.198;6.570;2023-07-13T05:32:35;13.25;;;4.30;;
20908;SDS011;10614;53.198;6.570;2023-07-13T05:34:36;9.98;;;3.92;;
20908;SDS011;10614;53.198;6.570;2023-07-13T05:36:38;12.98;;;4.55;;
20908;SDS011;10614;53.198;6.570;2023-07-13T05:38:42;14.52;;;3.88;;
20908;SDS011;10614;53.198;6.570;2023-07-13T05:40:44;14.52;;;4.40;;
20908;SDS011;10614;53.198;6.570;2023-07-13T05:42:48;17.33;;;4.40;;
20908;SDS011;10614;53.198;6.570;2023-07-13T05:44:50;16.38;;;3.97;;
20908;SDS011;10614;53.198;6.570;2023-07-13T05:46:52;12.50;;;3.65;;
20908;SDS011;10614;53.198;6.570;2023-07-13T05:48:55;10.55;;;3.65;;
20908;SDS011;10614;53.198;6.570;2023-07-13T05:50:57;11.02;;;3.42;;
20908;SDS011;10614;53.198;6.570;2023-07-13T05:52:59;10.70;;;4.13;;
20908;SDS011;10614;53.198;6.570;2023-07-13T05:54:59;14.88;;;4.05;;
20908;SDS011;10614;53.198;6.570;2023-07-13T05:57:01;11.40;;;3.75;;
20908;SDS011;10614;53.198;6.570;2023-07-13T05:59:05;17.13;;;4.28;;
20908;SDS011;10614;53.198;6.570;2023-07-13T06:01:09;11.55;;;3.60;;
20908;SDS011;10614;53.198;6.570;2023-07-13T06:03:12;7.72;;;2.90;;
20908;SDS011;10614;53.198;6.570;2023-07-13T06:05:15;16.98;;;3.80;;
20908;SDS011;10614;53.198;6.570;2023-07-13T06:07:17;13.35;;;3.53;;
20908;SDS011;10614;53.198;6.570;2023-07-13T06:09:19;10.43;;;3.35;;
20908;SDS011;10614;53.198;6.570;2023-07-13T06:11:22;18.92;;;4.47;;
20908;SDS011;10614;53.198;6.570;2023-07-13T06:13:27;17.55;;;4.05;;
20908;SDS011;10614;53.198;6.570;2023-07-13T06:15:32;12.88;;;3.88;;
20908;SDS011;10614;53.198;6.570;2023-07-13T06:17:34;11.85;;;3.78;;
20908;SDS011;10614;53.198;6.570;2023-07-13T06:19:37;11.57;;;3.40;;
20908;SDS011;10614;53.198;6.570;2023-07-13T06:21:40;18.88;;;4.10;;
20908;SDS011;10614;53.198;6.570;2023-07-13T06:23:42;11.43;;;3.42;;
20908;SDS011;10614;53.198;6.570;2023-07-13T06:25:44;9.40;;;3.50;;
20908;SDS011;10614;53.198;6.570;2023-07-13T06:29:52;15.13;;;3.60;;
20908;SDS011;10614;53.198;6.570;2023-07-13T06:31:56;13.95;;;3.78;;
20908;SDS011;10614;53.198;6.570;2023-07-13T06:33:58;13.73;;;3.88;;
20908;SDS011;10614;53.198;6.570;2023-07-13T06:36:01;7.63;;;3.05;;
20908;SDS011;10614;53.198;6.570;2023-07-13T06:38:03;19.58;;;3.85;;
20908;SDS011;10614;53.198;6.570;2023-07-13T06:40:06;13.85;;;3.28;;
20908;SDS011;10614;53.198;6.570;2023-07-13T06:42:09;11.57;;;3.35;;
20908;SDS011;10614;53.198;6.570;2023-07-13T06:44:11;12.82;;;3.67;;
20908;SDS011;10614;53.198;6.570;2023-07-13T06:46:13;14.73;;;3.72;;
20908;SDS011;10614;53.198;6.570;2023-07-13T06:48:17;15.82;;;3.55;;
20908;SDS011;10614;53.198;6.570;2023-07-13T06:50:19;13.90;;;3.10;;
20908;SDS011;10614;53.198;6.570;2023-07-13T06:52:21;16.73;;;3.70;;
20908;SDS011;10614;53.198;6.570;2023-07-13T06:54:23;12.52;;;3.25;;
20908;SDS011;10614;53.198;6.570;2023-07-13T06:56:25;7.55;;;2.65;;
20908;SDS011;10614;53.198;6.570;2023-07-13T06:58:27;8.00;;;2.55;;
20908;SDS011;10614;53.198;6.570;2023-07-13T07:00:29;14.60;;;3.58;;
20908;SDS011;10614;53.198;6.570;2023-07-13T07:02:32;9.30;;;2.53;;
20908;SDS011;10614;53.198;6.570;2023-07-13T07:04:35;14.82;;;3.35;;
20908;SDS011;10614;53.198;6.570;2023-07-13T07:06:37;9.23;;;2.67;;
20908;SDS011;10614;53.198;6.570;2023-07-13T07:08:39;10.50;;;2.67;;
20908;SDS011;10614;53.198;6.570;2023-07-13T07:10:41;7.07;;;2.63;;
20908;SDS011;10614;53.198;6.570;2023-07-13T07:12:43;7.30;;;2.33;;
20908;SDS011;10614;53.198;6.570;2023-07-13T07:14:45;7.72;;;2.53;;
20908;SDS011;10614;53.198;6.570;2023-07-13T07:16:47;10.50;;;2.70;;
20908;SDS011;10614;53.198;6.570;2023-07-13T07:18:49;7.90;;;2.38;;
20908;SDS011;10614;53.198;6.570;2023-07-13T07:20:52;13.43;;;3.40;;
20908;SDS011;10614;53.198;6.570;2023-07-13T07:22:54;6.53;;;2.15;;
20908;SDS011;10614;53.198;6.570;2023-07-13T07:24:56;11.85;;;2.80;;
20908;SDS011;10614;53.198;6.570;2023-07-13T07:26:58;9.77;;;2.65;;
20908;SDS011;10614;53.198;6.570;2023-07-13T07:29:00;8.55;;;2.63;;
20908;SDS011;10614;53.198;6.570;2023-07-13T07:31:01;10.77;;;2.55;;
20908;SDS011;10614;53.198;6.570;2023-07-13T07:33:03;13.05;;;2.80;;
20908;SDS011;10614;53.198;6.570;2023-07-13T07:35:05;9.27;;;2.78;;
20908;SDS011;10614;53.198;6.570;2023-07-13T07:37:11;8.55;;;2.60;;
20908;SDS011;10614;53.198;6.570;2023-07-13T07:39:13;10.93;;;2.70;;
20908;SDS011;10614;53.198;6.570;2023-07-13T07:41:16;11.55;;;3.03;;
20908;SDS011;10614;53.198;6.570;2023-07-13T07:43:18;8.02;;;2.58;;
20908;SDS011;10614;53.198;6.570;2023-07-13T07:45:20;6.80;;;2.72;;
20908;SDS011;10614;53.198;6.570;2023-07-13T07:47:23;6.47;;;2.40;;
20908;SDS011;10614;53.198;6.570;2023-07-13T07:49:25;9.70;;;2.25;;
20908;SDS011;10614;53.198;6.570;2023-07-13T07:51:27;10.50;;;2.53;;
20908;SDS011;10614;53.198;6.570;2023-07-13T07:53:31;6.47;;;2.20;;
20908;SDS011;10614;53.198;6.570;2023-07-13T07:55:33;6.85;;;2.25;;
20908;SDS011;10614;53.198;6.570;2023-07-13T07:57:36;6.43;;;2.67;;
20908;SDS011;10614;53.198;6.570;2023-07-13T07:59:38;6.95;;;2.35;;
20908;SDS011;10614;53.198;6.570;2023-07-13T08:01:40;11.30;;;3.17;;
20908;SDS011;10614;53.198;6.570;2023-07-13T08:03:43;8.02;;;2.42;;
20908;SDS011;10614;53.198;6.570;2023-07-13T08:05:45;7.72;;;2.70;;
20908;SDS011;10614;53.198;6.570;2023-07-13T08:07:47;6.03;;;2.42;;
20908;SDS011;10614;53.198;6.570;2023-07-13T08:09:50;7.43;;;2.00;;
20908;SDS011;10614;53.198;6.570;2023-07-13T08:11:53;5.70;;;2.40;;
20908;SDS011;10614;53.198;6.570;2023-07-13T08:13:55;4.50;;;1.95;;
20908;SDS011;10614;53.198;6.570;2023-07-13T08:15:57;5.03;;;1.60;;
20908;SDS011;10614;53.198;6.570;2023-07-13T08:17:59;6.47;;;1.70;;
20908;SDS011;10614;53.198;6.570;2023-07-13T08:20:01;7.78;;;2.05;;
20908;SDS011;10614;53.198;6.570;2023-07-13T08:22:04;8.50;;;1.98;;
20908;SDS011;10614;53.198;6.570;2023-07-13T08:24:06;4.28;;;1.77;;
20908;SDS011;10614;53.198;6.570;2023-07-13T08:26:10;4.75;;;1.83;;
20908;SDS011;10614;53.198;6.570;2023-07-13T08:28:11;4.05;;;1.90;;
20908;SDS011;10614;53.198;6.570;2023-07-13T08:30:13;5.38;;;1.80;;
20908;SDS011;10614;53.198;6.570;2023-07-13T08:32:15;7.63;;;2.15;;
20908;SDS011;10614;53.198;6.570;2023-07-13T08:34:18;6.15;;;2.30;;
20908;SDS011;10614;53.198;6.570;2023-07-13T08:36:20;8.57;;;2.15;;
20908;SDS011;10614;53.198;6.570;2023-07-13T08:38:22;7.28;;;2.20;;
20908;SDS011;10614;53.198;6.570;2023-07-13T08:40:24;9.15;;;2.70;;
20908;SDS011;10614;53.198;6.570;2023-07-13T08:42:36;4.80;;;1.88;;
20908;SDS011;10614;53.198;6.570;2023-07-13T08:44:43;8.20;;;2.30;;
20908;SDS011;10614;53.198;6.570;2023-07-13T08:46:55;4.60;;;2.03;;
20908;SDS011;10614;53.198;6.570;2023-07-13T08:51:09;6.00;;;1.98;;
20908;SDS011;10614;53.198;6.570;2023-07-13T08:53:14;6.20;;;2.40;;
20908;SDS011;10614;53.198;6.570;2023-07-13T08:55:18;4.90;;;1.90;;
20908;SDS011;10614;53.198;6.570;2023-07-13T08:57:24;7.50;;;2.10;;
20908;SDS011;10614;53.198;6.570;2023-07-13T08:59:31;7.50;;;2.40;;
20908;SDS011;10614;53.198;6.570;2023-07-13T09:01:41;8.40;;;2.20;;
20908;SDS011;10614;53.198;6.570;2023-07-13T09:03:58;6.18;;;1.98;;
20908;SDS011;10614;53.198;6.570;2023-07-13T09:06:07;8.13;;;2.08;;
20908;SDS011;10614;53.198;6.570;2023-07-13T09:08:18;7.13;;;2.45;;
20908;SDS011;10614;53.198;6.570;2023-07-13T09:10:36;7.13;;;2.45;;
20908;SDS011;10614;53.198;6.570;2023-07-13T09:12:46;10.13;;;2.30;;
20908;SDS011;10614;53.198;6.570;2023-07-13T09:15:00;8.32;;;2.20;;
20908;SDS011;10614;53.198;6.570;2023-07-13T09:17:17;5.20;;;2.10;;
20908;SDS011;10614;53.198;6.570;2023-07-13T09:19:21;7.60;;;2.08;;
20908;SDS011;10614;53.198;6.570;2023-07-13T09:21:33;5.43;;;2.28;;
20908;SDS011;10614;53.198;6.570;2023-07-13T09:23:39;7.95;;;2.10;;
20908;SDS011;10614;53.198;6.570;2023-07-13T09:25:40;5.40;;;2.08;;
20908;SDS011;10614;53.198;6.570;2023-07-13T09:27:44;9.18;;;2.45;;
20908;SDS011;10614;53.198;6.570;2023-07-13T09:29:49;5.03;;;2.25;;
20908;SDS011;10614;53.198;6.570;2023-07-13T09:31:58;5.25;;;2.38;;
20908;SDS011;10614;53.198;6.570;2023-07-13T09:34:07;5.85;;;2.13;;
20908;SDS011;10614;53.198;6.570;2023-07-13T09:36:18;6.43;;;2.55;;
20908;SDS011;10614;53.198;6.570;2023-07-13T09:38:30;7.63;;;2.05;;
20908;SDS011;10614;53.198;6.570;2023-07-13T09:40:36;8.57;;;2.15;;
20908;SDS011;10614;53.198;6.570;2023-07-13T09:42:45;6.43;;;2.40;;
20908;SDS011;10614;53.198;6.570;2023-07-13T09:44:52;9.23;;;2.72;;
20908;SDS011;10614;53.198;6.570;2023-07-13T09:46:55;9.38;;;2.45;;
20908;SDS011;10614;53.198;6.570;2023-07-13T09:48:58;6.45;;;2.42;;
20908;SDS011;10614;53.198;6.570;2023-07-13T09:51:01;7.47;;;2.30;;
20908;SDS011;10614;53.198;6.570;2023-07-13T09:53:15;5.77;;;2.73;;
20908;SDS011;10614;53.198;6.570;2023-07-13T09:55:24;8.18;;;3.97;;
20908;SDS011;10614;53.198;6.570;2023-07-13T09:57:27;6.75;;;2.28;;
20908;SDS011;10614;53.198;6.570;2023-07-13T09:59:30;5.32;;;2.35;;
20908;SDS011;10614;53.198;6.570;2023-07-13T10:01:36;11.52;;;2.10;;
20908;SDS011;10614;53.198;6.570;2023-07-13T10:03:39;5.85;;;2.58;;
20908;SDS011;10614;53.198;6.570;2023-07-13T10:05:55;10.07;;;2.45;;
20908;SDS011;10614;53.198;6.570;2023-07-13T10:08:06;3.78;;;1.65;;
20908;SDS011;10614;53.198;6.570;2023-07-13T10:10:19;8.32;;;3.10;;
20908;SDS011;10614;53.198;6.570;2023-07-13T10:14:26;8.20;;;2.25;;
20908;SDS011;10614;53.198;6.570;2023-07-13T10:18:39;7.57;;;2.03;;
20908;SDS011;10614;53.198;6.570;2023-07-13T10:20:43;4.25;;;1.73;;
20908;SDS011;10614;53.198;6.570;2023-07-13T10:22:49;5.60;;;1.63;;
20908;SDS011;10614;53.198;6.570;2023-07-13T10:24:55;3.60;;;1.40;;
20908;SDS011;10614;53.198;6.570;2023-07-13T10:27:01;5.03;;;1.40;;
20908;SDS011;10614;53.198;6.570;2023-07-13T10:29:10;5.85;;;1.60;;
20908;SDS011;10614;53.198;6.570;2023-07-13T10:31:15;3.67;;;1.40;;
20908;SDS011;10614;53.198;6.570;2023-07-13T10:33:18;4.20;;;1.30;;
20908;SDS011;10614;53.198;6.570;2023-07-13T10:35:21;3.78;;;1.40;;
20908;SDS011;10614;53.198;6.570;2023-07-13T10:37:24;4.18;;;1.30;;
20908;SDS011;10614;53.198;6.570;2023-07-13T10:39:32;3.85;;;1.65;;
20908;SDS011;10614;53.198;6.570;2023-07-13T10:41:36;2.72;;;0.90;;
20908;SDS011;10614;53.198;6.570;2023-07-13T10:43:42;4.30;;;1.15;;
20908;SDS011;10614;53.198;6.570;2023-07-13T10:45:47;3.33;;;1.40;;
20908;SDS011;10614;53.198;6.570;2023-07-13T10:47:51;4.45;;;1.40;;
20908;SDS011;10614;53.198;6.570;2023-07-13T10:49:59;6.60;;;1.25;;
20908;SDS011;10614;53.198;6.570;2023-07-13T10:52:02;6.78;;;1.15;;
20908;SDS011;10614;53.198;6.570;2023-07-13T10:54:12;2.88;;;1.10;;
20908;SDS011;10614;53.198;6.570;2023-07-13T10:56:22;3.80;;;1.23;;
20908;SDS011;10614;53.198;6.570;2023-07-13T10:58:32;3.13;;;1.30;;
20908;SDS011;10614;53.198;6.570;2023-07-13T11:00:35;5.57;;;1.30;;
20908;SDS011;10614;53.198;6.570;2023-07-13T11:02:55;8.13;;;1.40;;
20908;SDS011;10614;53.198;6.570;2023-07-13T11:04:58;4.47;;;1.10;;
20908;SDS011;10614;53.198;6.570;2023-07-13T11:07:00;4.38;;;1.27;;
20908;SDS011;10614;53.198;6.570;2023-07-13T11:09:19;3.13;;;1.13;;
20908;SDS011;10614;53.198;6.570;2023-07-13T11:11:36;5.35;;;1.10;;
20908;SDS011;10614;53.198;6.570;2023-07-13T11:16:12;4.13;;;1.63;;
20908;SDS011;10614;53.198;6.570;2023-07-13T11:18:21;4.20;;;1.45;;
20908;SDS011;10614;53.198;6.570;2023-07-13T11:20:35;2.33;;;1.20;;
20908;SDS011;10614;53.198;6.570;2023-07-13T11:22:43;4.63;;;1.35;;
20908;SDS011;10614;53.198;6.570;2023-07-13T11:24:52;5.13;;;1.67;;
20908;SDS011;10614;53.198;6.570;2023-07-13T11:27:01;6.33;;;1.43;;
20908;SDS011;10614;53.198;6.570;2023-07-13T11:29:24;5.75;;;1.50;;
20908;SDS011;10614;53.198;6.570;2023-07-13T11:31:33;5.97;;;1.83;;
20908;SDS011;10614;53.198;6.570;2023-07-13T11:33:56;4.47;;;1.45;;
20908;SDS011;10614;53.198;6.570;2023-07-13T11:36:00;7.50;;;1.38;;
20908;SDS011;10614;53.198;6.570;2023-07-13T11:38:09;7.65;;;2.05;;
20908;SDS011;10614;53.198;6.570;2023-07-13T11:40:16;3.58;;;1.50;;
20908;SDS011;10614;53.198;6.570;2023-07-13T11:42:20;5.10;;;1.58;;
20908;SDS011;10614;53.198;6.570;2023-07-13T11:44:23;4.68;;;1.75;;
20908;SDS011;10614;53.198;6.570;2023-07-13T11:46:27;5.03;;;1.65;;
20908;SDS011;10614;53.198;6.570;2023-07-13T11:48:31;6.40;;;1.60;;
20908;SDS011;10614;53.198;6.570;2023-07-13T11:50:37;4.75;;;1.23;;
20908;SDS011;10614;53.198;6.570;2023-07-13T11:52:39;4.68;;;1.40;;
20908;SDS011;10614;53.198;6.570;2023-07-13T11:54:43;5.20;;;1.38;;
20908;SDS011;10614;53.198;6.570;2023-07-13T11:56:50;5.13;;;1.35;;
20908;SDS011;10614;53.198;6.570;2023-07-13T11:58:54;7.75;;;1.20;;
20908;SDS011;10614;53.198;6.570;2023-07-13T12:00:59;11.25;;;1.70;;
20908;SDS011;10614;53.198;6.570;2023-07-13T12:03:04;7.43;;;1.65;;
20908;SDS011;10614;53.198;6.570;2023-07-13T12:05:09;5.78;;;1.50;;
20908;SDS011;10614;53.198;6.570;2023-07-13T12:07:15;4.00;;;1.40;;
20908;SDS011;10614;53.198;6.570;2023-07-13T12:09:19;3.78;;;1.48;;
20908;SDS011;10614;53.198;6.570;2023-07-13T12:11:25;4.45;;;1.45;;
20908;SDS011;10614;53.198;6.570;2023-07-13T12:13:28;8.52;;;1.90;;
20908;SDS011;10614;53.198;6.570;2023-07-13T12:15:34;5.35;;;1.70;;
20908;SDS011;10614;53.198;6.570;2023-07-13T12:17:40;6.45;;;1.60;;
20908;SDS011;10614;53.198;6.570;2023-07-13T12:19:42;4.57;;;2.00;;
20908;SDS011;10614;53.198;6.570;2023-07-13T12:21:48;7.43;;;1.60;;
20908;SDS011;10614;53.198;6.570;2023-07-13T12:23:51;4.88;;;1.55;;
20908;SDS011;10614;53.198;6.570;2023-07-13T12:25:53;7.30;;;1.80;;
20908;SDS011;10614;53.198;6.570;2023-07-13T12:27:56;5.55;;;1.70;;
20908;SDS011;10614;53.198;6.570;2023-07-13T12:29:58;5.85;;;1.35;;
20908;SDS011;10614;53.198;6.570;2023-07-13T12:32:03;6.40;;;1.80;;
20908;SDS011;10614;53.198;6.570;2023-07-13T12:34:10;6.45;;;1.60;;
20908;SDS011;10614;53.198;6.570;2023-07-13T12:36:13;6.82;;;1.50;;